Time;durP1;ratioP1;P1;durP2;ratioP2;P2;SDS_P1;SDS_P2;PMS_P1;PMS_P2;Temp;Humidity;BMP_temperature;BMP_pressure;BME280_temperature;BME280_humidity;BME280_pressure;Samples;Min_cycle;Max_cycle;Signal;HPM_P1;HPM_P2
2023/10/12 00:01:11;;;;;;;3.13;2.92;;;;;;;;;;6242957;23;20008;-70
2023/10/12 00:03:38;;;;;;;6.32;2.92;;;;;;;;;;6242354;23;20023;-70
2023/10/12 00:06:06;;;;;;;4.30;2.88;;;;;;;;;;6242466;23;20008;-70
2023/10/12 00:08:32;;;;;;;2.90;2.70;;;;;;;;;;6215457;23;20019;-69
2023/10/12 00:11:06;;;;;;;3.30;2.83;;;;;;;;;;6215212;23;20452;-69
2023/10/12 00:13:33;;;;;;;3.10;2.85;;;;;;;;;;6215697;23;20051;-70
2023/10/12 00:15:58;;;;;;;3.17;2.90;;;;;;;;;;6242819;23;20039;-69
2023/10/12 00:18:25;;;;;;;2.63;2.42;;;;;;;;;;6242376;23;20561;-69
2023/10/12 00:20:54;;;;;;;4.03;3.05;;;;;;;;;;6242639;23;20095;-67
2023/10/12 00:23:20;;;;;;;3.33;3.03;;;;;;;;;;6190205;23;20012;-68
2023/10/12 00:25:47;;;;;;;3.03;2.83;;;;;;;;;;6242002;23;20019;-66
2023/10/12 00:28:14;;;;;;;4.07;3.28;;;;;;;;;;6241832;23;20460;-68
2023/10/12 00:30:41;;;;;;;3.03;2.65;;;;;;;;;;6241917;23;20087;-70
2023/10/12 00:33:08;;;;;;;3.85;2.97;;;;;;;;;;6241605;23;20081;-69
2023/10/12 00:35:37;;;;;;;2.58;2.47;;;;;;;;;;6215200;23;20004;-69
2023/10/12 00:38:17;;;;;;;3.65;3.30;;;;;;;;;;6241841;23;20012;-70
2023/10/12 00:40:57;;;;;;;2.67;2.47;;;;;;;;;;6218234;23;20452;-69
2023/10/12 00:43:27;;;;;;;3.38;3.08;;;;;;;;;;6215246;23;20644;-69
2023/10/12 00:45:54;;;;;;;2.75;2.55;;;;;;;;;;6241713;23;20519;-69
2023/10/12 00:48:23;;;;;;;3.08;2.88;;;;;;;;;;6242040;23;20024;-70
2023/10/12 00:50:50;;;;;;;4.70;2.80;;;;;;;;;;6215671;23;20016;-70
2023/10/12 00:53:31;;;;;;;3.10;2.88;;;;;;;;;;6242159;23;20012;-70
2023/10/12 00:55:57;;;;;;;3.63;3.13;;;;;;;;;;6242038;23;20020;-70
2023/10/12 00:58:23;;;;;;;4.38;2.90;;;;;;;;;;6242053;23;20391;-70
2023/10/12 01:00:52;;;;;;;3.47;2.97;;;;;;;;;;6215190;23;20099;-69
2023/10/12 01:03:36;;;;;;;3.83;3.03;;;;;;;;;;6241937;23;20012;-70
2023/10/12 01:08:35;;;;;;;3.35;2.95;;;;;;;;;;6242150;23;20070;-69
2023/10/12 01:11:07;;;;;;;3.42;3.13;;;;;;;;;;6214646;23;20012;-69
2023/10/12 01:13:33;;;;;;;3.22;2.83;;;;;;;;;;6242015;23;20012;-69
2023/10/12 01:16:20;;;;;;;4.93;3.42;;;;;;;;;;6241827;23;20008;-70
2023/10/12 01:18:47;;;;;;;4.25;2.90;;;;;;;;;;6242213;23;20028;-68
2023/10/12 01:21:16;;;;;;;7.50;2.80;;;;;;;;;;6242235;23;20012;-70
2023/10/12 01:23:50;;;;;;;2.90;2.70;;;;;;;;;;6215146;23;20020;-69
2023/10/12 01:26:18;;;;;;;3.35;3.05;;;;;;;;;;6242104;23;20012;-70
2023/10/12 01:28:49;;;;;;;3.30;3.05;;;;;;;;;;6215211;23;20036;-69
2023/10/12 01:31:27;;;;;;;3.20;3.00;;;;;;;;;;6214911;23;20130;-70
2023/10/12 01:33:55;;;;;;;2.95;2.63;;;;;;;;;;6241848;23;20460;-68
2023/10/12 01:36:22;;;;;;;3.40;3.10;;;;;;;;;;6190680;23;20142;-67
2023/10/12 01:38:50;;;;;;;2.95;2.72;;;;;;;;;;6215336;23;20016;-69
2023/10/12 01:41:25;;;;;;;7.13;2.97;;;;;;;;;;6242115;23;20039;-69
2023/10/12 01:43:52;;;;;;;3.60;3.30;;;;;;;;;;6241915;23;20023;-68
2023/10/12 01:46:21;;;;;;;3.67;3.38;;;;;;;;;;6242664;23;20415;-69
2023/10/12 01:48:49;;;;;;;4.88;3.88;;;;;;;;;;6242179;23;20011;-70
2023/10/12 01:51:24;;;;;;;4.28;3.88;;;;;;;;;;6215243;23;20020;-70
2023/10/12 01:53:54;;;;;;;6.78;2.97;;;;;;;;;;6215108;23;20012;-69
2023/10/12 01:56:20;;;;;;;3.83;3.53;;;;;;;;;;6242334;23;20008;-69
2023/10/12 01:58:49;;;;;;;3.22;2.92;;;;;;;;;;6241559;23;20569;-69
2023/10/12 02:01:22;;;;;;;3.85;3.10;;;;;;;;;;6215281;23;20491;-68
2023/10/12 02:03:54;;;;;;;4.50;3.95;;;;;;;;;;6241604;23;20012;-68
2023/10/12 02:06:23;;;;;;;3.83;3.53;;;;;;;;;;6215306;23;20012;-69
2023/10/12 02:09:10;;;;;;;7.07;3.55;;;;;;;;;;6214774;23;20437;-68
2023/10/12 02:11:45;;;;;;;4.60;3.38;;;;;;;;;;6214858;23;20098;-67
2023/10/12 02:14:23;;;;;;;3.83;3.22;;;;;;;;;;6242117;23;20016;-69
2023/10/12 02:16:55;;;;;;;3.85;3.33;;;;;;;;;;6241585;23;20085;-68
2023/10/12 02:22:29;;;;;;;6.10;3.50;;;;;;;;;;6150199;23;20023;-70
2023/10/12 02:27:41;;;;;;;10.02;3.17;;;;;;;;;;6191655;23;20034;-69
2023/10/12 02:30:13;;;;;;;5.30;3.72;;;;;;;;;;6217525;23;20008;-69
2023/10/12 02:32:51;;;;;;;3.58;3.03;;;;;;;;;;6216596;23;20054;-69
2023/10/12 02:35:19;;;;;;;3.45;3.25;;;;;;;;;;6243744;23;20420;-69
2023/10/12 02:37:46;;;;;;;6.57;3.42;;;;;;;;;;6217276;23;20027;-68
2023/10/12 02:40:12;;;;;;;7.10;4.30;;;;;;;;;;6243711;23;20005;-70
2023/10/12 02:42:38;;;;;;;9.88;4.15;;;;;;;;;;6216724;23;20686;-69
2023/10/12 02:45:09;;;;;;;3.83;3.53;;;;;;;;;;6243385;23;20015;-70
2023/10/12 02:47:40;;;;;;;4.82;3.95;;;;;;;;;;6243459;23;20027;-68
2023/10/12 02:52:33;;;;;;;4.00;3.47;;;;;;;;;;6191345;23;20024;-69
2023/10/12 02:55:08;;;;;;;3.22;3.03;;;;;;;;;;6216298;23;20044;-68
2023/10/12 02:57:34;;;;;;;6.18;3.70;;;;;;;;;;6216493;23;20043;-68
2023/10/12 03:00:08;;;;;;;4.20;3.67;;;;;;;;;;6243646;23;20090;-67
2023/10/12 03:02:34;;;;;;;3.55;3.28;;;;;;;;;;6243632;23;20012;-68
2023/10/12 03:05:04;;;;;;;6.10;3.67;;;;;;;;;;6191379;23;20012;-69
2023/10/12 03:07:31;;;;;;;4.07;3.72;;;;;;;;;;6216745;23;20182;-66
2023/10/12 03:09:58;;;;;;;4.57;4.07;;;;;;;;;;6242935;23;20476;-68
2023/10/12 03:12:25;;;;;;;2.83;2.63;;;;;;;;;;6243260;23;20090;-68
2023/10/12 03:14:52;;;;;;;7.35;4.50;;;;;;;;;;6242990;23;20008;-68
2023/10/12 03:17:20;;;;;;;3.85;3.08;;;;;;;;;;6243443;23;20431;-69
2023/10/12 03:20:15;;;;;;;6.68;4.10;;;;;;;;;;6243260;23;20008;-68
2023/10/12 03:22:43;;;;;;;5.13;3.40;;;;;;;;;;6243217;23;20062;-69
2023/10/12 03:25:43;;;;;;;3.72;2.95;;;;;;;;;;6215780;23;20091;-68
2023/10/12 03:28:11;;;;;;;7.20;4.60;;;;;;;;;;6210486;23;20027;-68
2023/10/12 03:30:43;;;;;;;6.93;4.38;;;;;;;;;;6242914;23;20019;-67
2023/10/12 03:33:14;;;;;;;6.32;3.88;;;;;;;;;;6242221;23;20106;-69
2023/10/12 03:38:40;;;;;;;8.93;4.32;;;;;;;;;;6175352;23;20016;-68
2023/10/12 03:44:02;;;;;;;3.38;3.17;;;;;;;;;;6242690;23;20008;-69
2023/10/12 03:46:28;;;;;;;4.93;3.92;;;;;;;;;;6243167;23;20040;-70
2023/10/12 03:49:23;;;;;;;7.50;4.57;;;;;;;;;;6242785;23;20023;-68
2023/10/12 03:51:54;;;;;;;4.50;3.78;;;;;;;;;;6215117;23;20508;-69
2023/10/12 03:54:26;;;;;;;5.90;3.15;;;;;;;;;;6242899;23;20067;-69
2023/10/12 03:56:56;;;;;;;6.20;3.75;;;;;;;;;;6242603;23;20074;-69
2023/10/12 03:59:43;;;;;;;5.78;4.18;;;;;;;;;;6242926;23;20015;-69
2023/10/12 04:02:14;;;;;;;4.38;3.97;;;;;;;;;;6215465;23;20040;-69
2023/10/12 04:04:59;;;;;;;7.78;4.55;;;;;;;;;;6242812;23;20019;-71
2023/10/12 04:07:39;;;;;;;6.82;3.92;;;;;;;;;;6242878;23;20074;-69
2023/10/12 04:10:41;;;;;;;4.45;3.78;;;;;;;;;;6215401;23;20039;-71
2023/10/12 04:13:55;;;;;;;3.67;3.38;;;;;;;;;;6215209;23;20415;-70
2023/10/12 04:18:41;;;;;;;5.10;4.55;;;;;;;;;;6242885;23;20145;-68
2023/10/12 04:21:08;;;;;;;6.85;4.22;;;;;;;;;;6242294;23;20012;-69
2023/10/12 04:28:39;;;;;;;10.57;4.25;;;;;;;;;;6242285;23;20103;-70
2023/10/12 04:33:51;;;;;;;4.25;3.88;;;;;;;;;;6216025;23;20043;-71
2023/10/12 04:36:25;;;;;;;8.27;4.63;;;;;;;;;;6242891;23;20008;-69
2023/10/12 04:41:38;;;;;;;4.50;4.05;;;;;;;;;;6242624;23;20474;-70
2023/10/12 04:44:35;;;;;;;5.47;4.97;;;;;;;;;;6242189;23;20016;-69
2023/10/12 04:47:12;;;;;;;5.70;3.78;;;;;;;;;;6242326;23;20352;-69
2023/10/12 04:54:49;;;;;;;7.07;4.95;;;;;;;;;;6215539;23;20019;-70
2023/10/12 04:57:16;;;;;;;4.90;4.22;;;;;;;;;;6242241;23;20360;-69
2023/10/12 04:59:50;;;;;;;6.10;4.10;;;;;;;;;;6242226;23;20023;-70
2023/10/12 05:02:28;;;;;;;10.55;4.78;;;;;;;;;;6190568;23;20015;-69
2023/10/12 05:07:27;;;;;;;6.68;3.25;;;;;;;;;;6242017;23;20051;-70
2023/10/12 05:09:54;;;;;;;4.50;4.03;;;;;;;;;;6242045;23;20008;-70
2023/10/12 05:12:20;;;;;;;5.25;3.53;;;;;;;;;;6241954;23;20071;-70
2023/10/12 05:14:47;;;;;;;6.05;4.10;;;;;;;;;;6241976;23;20012;-69
2023/10/12 05:17:14;;;;;;;3.42;3.13;;;;;;;;;;6241765;23;20007;-70
2023/10/12 05:19:41;;;;;;;4.10;3.45;;;;;;;;;;6238797;23;20582;-69
2023/10/12 05:22:07;;;;;;;3.58;3.30;;;;;;;;;;6240650;23;20511;-70
2023/10/12 05:24:33;;;;;;;5.97;4.53;;;;;;;;;;6241065;23;20015;-69
2023/10/12 05:27:09;;;;;;;6.70;3.95;;;;;;;;;;6241259;23;20035;-69
2023/10/12 05:29:38;;;;;;;6.43;4.70;;;;;;;;;;6242064;23;20448;-69
2023/10/12 05:32:18;;;;;;;4.43;4.00;;;;;;;;;;6241672;23;20020;-69
2023/10/12 05:34:46;;;;;;;6.00;4.97;;;;;;;;;;6241948;23;20065;-69
2023/10/12 05:39:47;;;;;;;5.47;4.90;;;;;;;;;;6240835;23;20660;-67
2023/10/12 05:42:19;;;;;;;4.82;4.35;;;;;;;;;;6240947;23;20555;-69
2023/10/12 05:44:48;;;;;;;11.27;4.85;;;;;;;;;;6240918;23;20040;-69
2023/10/12 05:47:17;;;;;;;4.53;4.13;;;;;;;;;;6213812;23;20024;-69
2023/10/12 05:49:45;;;;;;;6.70;4.43;;;;;;;;;;6240985;23;20066;-69
2023/10/12 05:52:11;;;;;;;6.53;4.45;;;;;;;;;;6240877;23;20472;-69
2023/10/12 05:54:40;;;;;;;5.05;4.32;;;;;;;;;;6240706;23;20008;-69
2023/10/12 05:57:25;;;;;;;7.60;4.97;;;;;;;;;;6241160;23;20016;-70
2023/10/12 05:59:51;;;;;;;5.65;3.72;;;;;;;;;;6243167;23;20008;-69
2023/10/12 06:02:22;;;;;;;5.93;4.63;;;;;;;;;;6243020;23;20399;-69
2023/10/12 06:04:48;;;;;;;7.40;5.70;;;;;;;;;;6243485;23;20008;-70
2023/10/12 06:07:15;;;;;;;4.85;4.45;;;;;;;;;;6242882;23;20126;-70
2023/10/12 06:09:41;;;;;;;6.25;5.15;;;;;;;;;;6243073;23;20100;-70
2023/10/12 06:12:09;;;;;;;5.03;4.43;;;;;;;;;;6242893;23;20043;-70
2023/10/12 06:14:36;;;;;;;5.20;4.05;;;;;;;;;;6243100;23;20019;-72
2023/10/12 06:17:02;;;;;;;6.60;5.22;;;;;;;;;;6242729;23;20722;-72
2023/10/12 06:19:34;;;;;;;5.10;4.68;;;;;;;;;;6243027;23;20083;-72
2023/10/12 06:22:13;;;;;;;5.13;4.30;;;;;;;;;;6242686;23;20073;-71
2023/10/12 06:24:44;;;;;;;4.72;4.32;;;;;;;;;;6216065;23;20024;-69
2023/10/12 06:29:48;;;;;;;7.43;5.53;;;;;;;;;;6243192;23;20030;-69
2023/10/12 06:32:24;;;;;;;7.00;5.45;;;;;;;;;;6241978;23;20552;-70
2023/10/12 06:35:13;;;;;;;4.38;3.92;;;;;;;;;;6242393;23;20545;-71
2023/10/12 06:45:51;;;;;;;8.30;5.05;;;;;;;;;;6216320;23;20043;-72
2023/10/12 06:51:13;;;;;;;5.57;4.60;;;;;;;;;;6242569;23;20086;-71
2023/10/12 06:53:41;;;;;;;5.88;5.07;;;;;;;;;;6242676;23;20476;-72
2023/10/12 06:56:21;;;;;;;6.50;5.22;;;;;;;;;;6241759;23;20012;-69
2023/10/12 07:01:38;;;;;;;6.85;4.88;;;;;;;;;;6242674;23;20031;-69
2023/10/12 07:04:13;;;;;;;5.63;5.00;;;;;;;;;;6242458;23;20044;-69
2023/10/12 07:07:29;;;;;;;5.38;4.88;;;;;;;;;;6242585;23;20031;-70
2023/10/12 07:09:39;;;;;;;9.05;5.93;;;;;;;;;;6221276;23;20055;-70
2023/10/12 07:12:09;;;;;;;4.82;4.43;;;;;;;;;;6242284;23;20095;-69
2023/10/12 07:14:38;;;;;;;4.95;4.55;;;;;;;;;;6242561;23;20050;-70
2023/10/12 07:17:04;;;;;;;6.93;5.20;;;;;;;;;;6242604;23;20107;-69
2023/10/12 07:19:31;;;;;;;4.90;4.50;;;;;;;;;;6215638;23;20008;-69
2023/10/12 07:22:01;;;;;;;5.28;4.85;;;;;;;;;;6242415;23;20023;-69
2023/10/12 07:24:29;;;;;;;9.15;5.22;;;;;;;;;;6215821;23;20470;-70
2023/10/12 07:27:06;;;;;;;6.80;4.38;;;;;;;;;;6242572;23;20066;-70
2023/10/12 07:29:36;;;;;;;4.82;4.43;;;;;;;;;;6242102;23;20074;-69
2023/10/12 07:32:16;;;;;;;6.60;5.63;;;;;;;;;;6241912;23;20391;-69
2023/10/12 07:34:45;;;;;;;6.85;5.88;;;;;;;;;;6242399;23;20719;-69
2023/10/12 07:37:13;;;;;;;7.15;4.90;;;;;;;;;;6242139;23;20336;-68
2023/10/12 07:39:42;;;;;;;6.28;5.68;;;;;;;;;;6242143;23;20139;-69
2023/10/12 07:42:12;;;;;;;7.15;6.05;;;;;;;;;;6242074;23;20012;-69
2023/10/12 07:44:53;;;;;;;8.45;5.38;;;;;;;;;;6242101;23;20101;-69
2023/10/12 07:47:32;;;;;;;5.80;4.75;;;;;;;;;;6218420;23;20024;-69
2023/10/12 07:50:08;;;;;;;8.10;5.90;;;;;;;;;;6242638;23;20012;-67
2023/10/12 07:52:46;;;;;;;6.22;5.63;;;;;;;;;;6216301;23;20403;-68
2023/10/12 07:55:17;;;;;;;7.80;5.47;;;;;;;;;;6216086;23;20471;-68
2023/10/12 07:57:46;;;;;;;6.57;5.93;;;;;;;;;;6241978;23;20019;-69
2023/10/12 08:21:25;;;;;;;7.22;5.28;;;;;;;;;;6241064;23;20344;-69
2023/10/12 08:23:57;;;;;;;8.00;6.40;;;;;;;;;;6242082;23;20016;-70
2023/10/12 08:29:59;;;;;;;10.93;6.68;;;;;;;;;;6240853;23;20733;-68
2023/10/12 08:39:39;;;;;;;8.95;6.28;;;;;;;;;;6239340;23;20474;-70
2023/10/12 08:42:36;;;;;;;6.82;6.10;;;;;;;;;;6213527;23;20043;-70
2023/10/12 08:45:09;;;;;;;6.28;4.80;;;;;;;;;;6240250;23;20043;-69
2023/10/12 08:50:08;;;;;;;10.00;6.93;;;;;;;;;;6214592;23;20091;-70
2023/10/12 08:52:35;;;;;;;11.38;5.88;;;;;;;;;;6214606;23;20113;-69
2023/10/12 08:57:43;;;;;;;7.03;5.15;;;;;;;;;;6241370;23;20008;-68
2023/10/12 09:00:39;;;;;;;9.27;6.40;;;;;;;;;;6241109;23;20020;-69
2023/10/12 09:06:00;;;;;;;10.60;5.88;;;;;;;;;;6168755;23;20659;-68
2023/10/12 09:13:37;;;;;;;8.00;5.38;;;;;;;;;;6241270;23;20016;-70
2023/10/12 09:16:09;;;;;;;8.88;5.50;;;;;;;;;;6214094;23;20437;-68
2023/10/12 09:18:44;;;;;;;6.40;5.82;;;;;;;;;;6241288;23;20015;-70
2023/10/12 09:26:49;;;;;;;7.80;6.22;;;;;;;;;;6205264;23;20047;-69
2023/10/12 09:29:22;;;;;;;7.43;6.72;;;;;;;;;;6240821;23;20471;-70
2023/10/12 09:31:55;;;;;;;6.82;6.15;;;;;;;;;;6240503;23;20024;-70
2023/10/12 09:34:42;;;;;;;10.55;6.35;;;;;;;;;;6215980;23;20773;-69
2023/10/12 09:37:16;;;;;;;10.95;5.22;;;;;;;;;;6241081;23;20019;-69
2023/10/12 09:39:45;;;;;;;8.38;5.90;;;;;;;;;;6241207;23;20070;-69
2023/10/12 09:42:22;;;;;;;7.20;5.65;;;;;;;;;;6241229;23;20016;-70
2023/10/12 09:44:50;;;;;;;9.43;6.05;;;;;;;;;;6241087;23;20008;-69
2023/10/12 09:47:16;;;;;;;6.95;5.97;;;;;;;;;;6213872;23;20397;-70
2023/10/12 09:49:54;;;;;;;7.40;5.68;;;;;;;;;;6188995;23;20016;-67
2023/10/12 09:52:21;;;;;;;8.40;4.25;;;;;;;;;;6240726;23;20023;-69
2023/10/12 09:54:57;;;;;;;6.32;4.93;;;;;;;;;;6189783;23;20348;-68
2023/10/12 09:57:27;;;;;;;5.95;5.20;;;;;;;;;;6188975;23;20467;-70
2023/10/12 09:59:59;;;;;;;6.55;4.65;;;;;;;;;;6214799;23;20023;-69
2023/10/12 10:02:30;;;;;;;13.27;5.78;;;;;;;;;;6241173;23;20066;-70
2023/10/12 10:05:01;;;;;;;11.88;4.75;;;;;;;;;;6241813;23;20042;-68
2023/10/12 10:07:35;;;;;;;7.32;5.78;;;;;;;;;;6216538;23;20035;-69
2023/10/12 10:10:05;;;;;;;7.78;5.75;;;;;;;;;;6215900;23;20016;-69
2023/10/12 10:12:36;;;;;;;6.57;5.72;;;;;;;;;;6215200;23;20012;-69
2023/10/12 10:15:10;;;;;;;9.77;5.53;;;;;;;;;;6214827;23;20018;-69
2023/10/12 10:17:46;;;;;;;8.90;5.88;;;;;;;;;;6215931;23;20368;-69
2023/10/12 10:22:59;;;;;;;9.45;5.50;;;;;;;;;;6215813;23;20038;-69
2023/10/12 10:25:33;;;;;;;8.63;4.88;;;;;;;;;;6242583;23;20071;-70
2023/10/12 10:28:10;;;;;;;6.93;6.00;;;;;;;;;;6242078;23;20082;-69
2023/10/12 10:30:41;;;;;;;5.72;5.13;;;;;;;;;;6241982;23;20015;-68
2023/10/12 10:33:17;;;;;;;5.97;4.82;;;;;;;;;;6241360;23;20107;-71
2023/10/12 10:35:56;;;;;;;7.80;4.90;;;;;;;;;;6241433;23;20015;-69
2023/10/12 10:38:23;;;;;;;5.55;5.10;;;;;;;;;;6241073;23;20012;-69
2023/10/12 10:40:49;;;;;;;6.20;5.15;;;;;;;;;;6213629;23;20023;-70
2023/10/12 10:43:16;;;;;;;5.75;4.70;;;;;;;;;;6241686;23;20468;-69
2023/10/12 10:45:56;;;;;;;9.38;5.90;;;;;;;;;;6243087;23;20034;-69
2023/10/12 10:48:27;;;;;;;8.30;4.72;;;;;;;;;;6216272;23;20031;-71
2023/10/12 10:50:54;;;;;;;6.28;5.63;;;;;;;;;;6242776;23;20011;-69
2023/10/12 10:53:20;;;;;;;8.30;5.20;;;;;;;;;;6215679;23;20023;-70
2023/10/12 10:55:51;;;;;;;8.88;5.45;;;;;;;;;;6215992;23;20008;-71
2023/10/12 10:58:20;;;;;;;;;;;;;;;;;;6216810;23;20016;-70
2023/10/12 11:00:46;;;;;;;8.43;5.55;;;;;;;;;;6214296;23;19907;-69
2023/10/12 11:03:18;;;;;;;6.82;5.63;;;;;;;;;;6242242;23;20026;-72
2023/10/12 11:05:46;;;;;;;5.82;4.65;;;;;;;;;;6242989;23;20016;-71
2023/10/12 11:08:31;;;;;;;7.63;5.80;;;;;;;;;;6242579;23;20055;-71
2023/10/12 11:13:40;;;;;;;6.13;5.53;;;;;;;;;;6216884;23;20368;-69
2023/10/12 11:16:20;;;;;;;11.15;5.55;;;;;;;;;;6242670;23;20015;-70
2023/10/12 11:18:47;;;;;;;8.18;5.45;;;;;;;;;;6215447;23;20043;-70
2023/10/12 11:21:14;;;;;;;7.43;4.65;;;;;;;;;;6215562;23;20023;-71
2023/10/12 11:23:44;;;;;;;7.32;5.70;;;;;;;;;;6242697;23;20008;-69
2023/10/12 11:26:21;;;;;;;;;;;;;;;;;;6218127;23;20058;-70
2023/10/12 11:29:00;;;;;;;8.88;6.40;;;;;;;;;;6212151;23;19915;-70
2023/10/12 11:31:33;;;;;;;6.55;5.32;;;;;;;;;;6240532;23;20020;-71
2023/10/12 11:34:06;;;;;;;10.15;5.95;;;;;;;;;;6241590;23;20090;-70
2023/10/12 11:36:33;;;;;;;10.98;6.20;;;;;;;;;;6242031;23;20012;-70
2023/10/12 11:39:04;;;;;;;11.80;6.43;;;;;;;;;;6241224;23;20012;-69
2023/10/12 11:41:34;;;;;;;13.68;5.90;;;;;;;;;;6241758;23;20035;-69
2023/10/12 11:44:05;;;;;;;8.65;6.22;;;;;;;;;;6213884;23;20024;-70
2023/10/12 11:46:43;;;;;;;13.45;6.22;;;;;;;;;;6240638;23;20016;-69
2023/10/12 11:49:10;;;;;;;7.13;6.40;;;;;;;;;;6241198;23;20085;-71
2023/10/12 11:51:40;;;;;;;7.32;6.15;;;;;;;;;;6240602;23;20039;-72
2023/10/12 11:54:19;;;;;;;6.40;5.80;;;;;;;;;;6189277;23;20018;-71
2023/10/12 11:56:49;;;;;;;8.68;4.63;;;;;;;;;;6241083;23;20023;-71
2023/10/12 11:59:37;;;;;;;7.18;5.40;;;;;;;;;;6214351;23;20012;-72
2023/10/12 12:02:15;;;;;;;5.63;5.13;;;;;;;;;;6241275;23;20452;-71
2023/10/12 12:04:43;;;;;;;6.82;5.50;;;;;;;;;;6241504;23;20039;-72
2023/10/12 12:07:10;;;;;;;7.47;6.45;;;;;;;;;;6241398;23;20411;-70
2023/10/12 12:09:39;;;;;;;9.13;6.38;;;;;;;;;;6214551;23;20012;-70
2023/10/12 12:12:07;;;;;;;8.52;7.07;;;;;;;;;;6215155;23;20347;-70
2023/10/12 12:14:33;;;;;;;6.25;5.40;;;;;;;;;;6242088;23;20012;-70
2023/10/12 12:17:01;;;;;;;7.70;6.35;;;;;;;;;;6242861;23;20348;-70
2023/10/12 12:19:27;;;;;;;8.38;6.03;;;;;;;;;;6241496;23;20008;-71
2023/10/12 12:21:53;;;;;;;7.97;5.38;;;;;;;;;;6242124;23;20012;-71
2023/10/12 12:24:23;;;;;;;9.73;7.60;;;;;;;;;;6215432;23;20070;-71
2023/10/12 12:26:51;;;;;;;7.20;5.43;;;;;;;;;;6241870;23;20040;-70
2023/10/12 12:29:23;;;;;;;7.90;6.47;;;;;;;;;;6241341;23;20046;-71
2023/10/12 12:31:57;;;;;;;6.38;5.00;;;;;;;;;;6241110;23;20023;-72
2023/10/12 12:34:38;;;;;;;12.90;7.65;;;;;;;;;;6241232;23;20391;-71
2023/10/12 12:37:05;;;;;;;;;;;;;;;;;;6242266;23;20037;-70
2023/10/12 12:39:33;;;;;;;7.40;5.90;;;;;;;;;;6241053;23;20026;-71
2023/10/12 12:41:59;;;;;;;10.77;6.72;;;;;;;;;;6241008;23;20525;-72
2023/10/12 12:44:25;;;;;;;7.35;6.55;;;;;;;;;;6213945;23;20012;-72
2023/10/12 12:46:51;;;;;;;7.32;5.32;;;;;;;;;;6214749;23;20016;-71
2023/10/12 12:49:17;;;;;;;13.70;7.57;;;;;;;;;;6213764;23;20372;-71
2023/10/12 12:51:43;;;;;;;11.10;5.63;;;;;;;;;;6214392;23;20008;-72
2023/10/12 12:54:09;;;;;;;7.78;6.18;;;;;;;;;;6240077;23;20012;-74
2023/10/12 12:56:36;;;;;;;8.95;5.95;;;;;;;;;;6238500;23;20059;-73
2023/10/12 12:59:04;;;;;;;7.75;7.00;;;;;;;;;;6238723;23;20114;-73
2023/10/12 13:01:31;;;;;;;7.93;5.95;;;;;;;;;;6238419;23;20018;-72
2023/10/12 13:03:57;;;;;;;8.30;6.80;;;;;;;;;;6238838;23;20014;-71
2023/10/12 13:06:23;;;;;;;5.45;4.95;;;;;;;;;;6238681;23;20012;-76
2023/10/12 13:08:49;;;;;;;8.63;5.18;;;;;;;;;;6238662;23;20086;-76
2023/10/12 13:11:19;;;;;;;7.72;5.97;;;;;;;;;;6241047;23;20073;-76
2023/10/12 13:13:45;;;;;;;6.43;5.53;;;;;;;;;;6189156;23;20112;-76
2023/10/12 13:16:14;;;;;;;6.50;5.90;;;;;;;;;;6214496;23;20019;-71
2023/10/12 13:18:46;;;;;;;9.30;6.40;;;;;;;;;;6188886;23;20016;-70
2023/10/12 13:21:16;;;;;;;8.15;6.22;;;;;;;;;;6241395;23;20023;-73
2023/10/12 13:23:45;;;;;;;13.20;6.63;;;;;;;;;;6240759;23;20019;-71
2023/10/12 13:26:17;;;;;;;5.72;5.13;;;;;;;;;;6240896;23;20008;-71
2023/10/12 13:28:44;;;;;;;7.20;5.72;;;;;;;;;;6240202;23;20020;-70
2023/10/12 13:31:13;;;;;;;5.88;5.28;;;;;;;;;;6240212;23;20047;-70
2023/10/12 13:33:41;;;;;;;6.85;5.07;;;;;;;;;;6239343;23;20023;-71
2023/10/12 13:36:08;;;;;;;5.45;4.63;;;;;;;;;;6239934;23;20012;-70
2023/10/12 13:38:36;;;;;;;7.22;6.53;;;;;;;;;;6213110;23;20019;-73
2023/10/12 13:41:02;;;;;;;8.45;5.95;;;;;;;;;;6237831;23;20488;-70
2023/10/12 13:43:31;;;;;;;10.20;4.50;;;;;;;;;;6212894;23;20016;-70
2023/10/12 13:46:00;;;;;;;4.72;4.32;;;;;;;;;;6240251;23;20054;-69
2023/10/12 13:48:27;;;;;;;5.07;4.57;;;;;;;;;;6240011;23;20016;-70
2023/10/12 13:51:31;;;;;;;8.30;5.32;;;;;;;;;;6240732;23;20012;-72
2023/10/12 13:53:50;;;;;;;6.13;5.35;;;;;;;;;;6234976;23;20019;-70
2023/10/12 13:56:17;;;;;;;7.80;5.90;;;;;;;;;;6240115;23;20012;-70
2023/10/12 13:58:47;;;;;;;5.60;5.15;;;;;;;;;;6213733;23;20487;-71
2023/10/12 14:01:18;;;;;;;12.23;6.20;;;;;;;;;;6240491;23;20035;-71
2023/10/12 14:04:00;;;;;;;8.50;5.40;;;;;;;;;;6240238;23;20014;-72
2023/10/12 14:06:29;;;;;;;12.75;6.28;;;;;;;;;;6240051;23;20016;-71
2023/10/12 14:08:56;;;;;;;9.95;5.40;;;;;;;;;;6164873;23;20368;-71
2023/10/12 14:11:22;;;;;;;6.30;5.32;;;;;;;;;;6212702;23;20012;-71
2023/10/12 14:13:50;;;;;;;5.53;5.13;;;;;;;;;;6239817;23;20034;-72
2023/10/12 14:16:16;;;;;;;4.68;4.25;;;;;;;;;;6240710;23;20099;-71
2023/10/12 14:18:42;;;;;;;5.75;4.47;;;;;;;;;;6241360;23;20043;-70
2023/10/12 14:21:11;;;;;;;7.03;4.90;;;;;;;;;;6215655;23;20016;-70
2023/10/12 14:23:40;;;;;;;5.53;4.68;;;;;;;;;;6242021;23;20562;-69
2023/10/12 14:26:06;;;;;;;5.50;5.00;;;;;;;;;;6242021;23;20012;-70
2023/10/12 14:28:34;;;;;;;5.03;4.53;;;;;;;;;;6242083;23;20047;-70
2023/10/12 14:31:00;;;;;;;5.90;5.30;;;;;;;;;;6215785;23;20456;-70
2023/10/12 14:33:30;;;;;;;5.30;3.80;;;;;;;;;;6241659;23;20015;-70
2023/10/12 14:35:56;;;;;;;3.83;3.58;;;;;;;;;;6190325;23;20468;-70
2023/10/12 14:38:22;;;;;;;3.55;3.28;;;;;;;;;;6242028;23;20022;-72
2023/10/12 14:40:48;;;;;;;4.32;3.58;;;;;;;;;;6214597;23;20012;-72
2023/10/12 14:43:15;;;;;;;4.35;4.00;;;;;;;;;;6190595;23;20027;-72
2023/10/12 14:45:48;;;;;;;4.45;4.00;;;;;;;;;;6241652;23;20019;-72
2023/10/12 14:48:16;;;;;;;8.23;4.25;;;;;;;;;;6241611;23;20020;-71
2023/10/12 14:50:45;;;;;;;4.30;3.90;;;;;;;;;;6241697;23;20087;-71
2023/10/12 14:53:15;;;;;;;4.55;4.15;;;;;;;;;;6214921;23;20034;-72
2023/10/12 14:55:43;;;;;;;6.55;3.92;;;;;;;;;;6241348;23;20012;-72
2023/10/12 14:58:13;;;;;;;4.38;3.95;;;;;;;;;;6215533;23;20464;-71
2023/10/12 15:00:43;;;;;;;5.18;3.72;;;;;;;;;;6215139;23;20115;-72
2023/10/12 15:03:16;;;;;;;5.30;4.30;;;;;;;;;;6215274;23;20024;-72
2023/10/12 15:05:42;;;;;;;3.95;3.63;;;;;;;;;;6241468;23;20008;-71
2023/10/12 15:08:09;;;;;;;4.57;4.05;;;;;;;;;;6215250;23;20369;-70
2023/10/12 15:10:43;;;;;;;4.00;3.15;;;;;;;;;;6214082;23;20008;-71
2023/10/12 15:13:12;;;;;;;3.72;3.35;;;;;;;;;;6241362;23;20019;-70
2023/10/12 15:15:45;;;;;;;5.88;4.00;;;;;;;;;;6240479;23;20012;-71
2023/10/12 15:18:12;;;;;;;4.78;4.03;;;;;;;;;;6241730;23;20012;-70
2023/10/12 15:20:48;;;;;;;3.97;3.60;;;;;;;;;;6241672;23;20452;-71
2023/10/12 15:23:16;;;;;;;5.07;3.38;;;;;;;;;;6241827;23;20452;-69
2023/10/12 15:25:43;;;;;;;3.47;3.28;;;;;;;;;;6213786;23;20023;-70
2023/10/12 15:28:11;;;;;;;4.05;3.75;;;;;;;;;;6242061;23;20553;-71
2023/10/12 15:30:38;;;;;;;6.20;3.80;;;;;;;;;;6213783;23;20019;-70
2023/10/12 15:33:04;;;;;;;5.50;3.85;;;;;;;;;;6165096;23;20027;-70
2023/10/12 15:35:30;;;;;;;3.90;3.60;;;;;;;;;;6241113;23;20016;-71
2023/10/12 15:38:02;;;;;;;5.10;3.85;;;;;;;;;;6214284;23;20012;-70
2023/10/12 15:40:28;;;;;;;3.92;3.63;;;;;;;;;;6212958;23;20018;-69
2023/10/12 15:43:04;;;;;;;3.92;3.63;;;;;;;;;;6240861;23;20039;-68
2023/10/12 15:45:30;;;;;;;3.85;3.55;;;;;;;;;;6214911;23;20095;-68
2023/10/12 15:47:56;;;;;;;4.72;3.60;;;;;;;;;;6214978;23;20439;-70
2023/10/12 15:50:23;;;;;;;3.40;3.15;;;;;;;;;;6241205;23;20020;-69
2023/10/12 15:52:49;;;;;;;4.47;3.72;;;;;;;;;;6241499;23;20023;-71
2023/10/12 15:55:18;;;;;;;3.20;2.83;;;;;;;;;;6188728;23;20004;-71
2023/10/12 15:57:48;;;;;;;3.55;3.33;;;;;;;;;;6214374;23;20019;-71
2023/10/12 16:00:24;;;;;;;3.08;2.88;;;;;;;;;;6214035;23;20483;-70
2023/10/12 16:02:53;;;;;;;3.70;3.40;;;;;;;;;;6241512;23;20015;-70
2023/10/12 16:05:20;;;;;;;3.55;3.25;;;;;;;;;;6240393;23;20012;-71
2023/10/12 16:07:46;;;;;;;4.40;2.63;;;;;;;;;;6239904;23;20118;-71
2023/10/12 16:10:14;;;;;;;3.83;3.28;;;;;;;;;;6240874;23;20063;-70
2023/10/12 16:12:41;;;;;;;3.90;3.05;;;;;;;;;;6214050;23;20015;-71
2023/10/12 16:15:08;;;;;;;2.70;2.50;;;;;;;;;;6214557;23;20012;-71
2023/10/12 16:17:36;;;;;;;2.70;2.58;;;;;;;;;;6240771;23;20012;-71
2023/10/12 16:20:04;;;;;;;3.25;3.00;;;;;;;;;;6241920;23;20184;-72
2023/10/12 16:22:32;;;;;;;4.60;2.83;;;;;;;;;;6214094;23;20012;-72
2023/10/12 16:25:08;;;;;;;3.25;3.00;;;;;;;;;;6241090;23;20050;-72
2023/10/12 16:27:37;;;;;;;3.08;2.83;;;;;;;;;;6241997;23;20380;-69
2023/10/12 16:30:04;;;;;;;2.70;2.50;;;;;;;;;;6189937;23;20451;-71
2023/10/12 16:32:30;;;;;;;2.67;2.47;;;;;;;;;;6208912;23;20020;-70
2023/10/12 16:34:57;;;;;;;4.93;3.05;;;;;;;;;;6211372;23;20039;-70
2023/10/12 16:37:23;;;;;;;5.22;2.97;;;;;;;;;;6210861;23;20020;-70
2023/10/12 16:39:53;;;;;;;2.47;2.30;;;;;;;;;;6207969;23;20008;-69
2023/10/12 16:42:20;;;;;;;2.58;2.38;;;;;;;;;;6209395;23;20020;-71
2023/10/12 16:44:50;;;;;;;3.13;2.50;;;;;;;;;;6209850;23;20012;-70
2023/10/12 16:47:19;;;;;;;3.05;2.22;;;;;;;;;;6210766;23;20333;-70
2023/10/12 16:49:45;;;;;;;4.43;2.78;;;;;;;;;;6211322;23;20095;-69
2023/10/12 16:52:12;;;;;;;5.45;2.78;;;;;;;;;;6211513;23;20015;-70
2023/10/12 16:54:44;;;;;;;4.07;2.90;;;;;;;;;;6209750;23;20012;-69
2023/10/12 16:57:10;;;;;;;3.90;3.47;;;;;;;;;;6212712;23;20016;-69